sensor_id;sensor_type;location;lat;lon;timestamp;P1;durP1;ratioP1;P2;durP2;ratioP2
71836;SDS011;59686;51.716;7.016;2023-03-14T00:01:29;4.25;;;1.70;;
71836;SDS011;59686;51.716;7.016;2023-03-14T00:03:55;6.95;;;2.20;;
71836;SDS011;59686;51.716;7.016;2023-03-14T00:06:21;4.72;;;2.00;;
71836;SDS011;59686;51.716;7.016;2023-03-14T00:11:18;5.95;;;1.83;;
71836;SDS011;59686;51.716;7.016;2023-03-14T00:13:48;3.83;;;1.45;;
71836;SDS011;59686;51.716;7.016;2023-03-14T00:16:17;3.97;;;1.80;;
71836;SDS011;59686;51.716;7.016;2023-03-14T00:18:45;5.75;;;1.90;;
71836;SDS011;59686;51.716;7.016;2023-03-14T00:21:29;5.50;;;2.17;;
71836;SDS011;59686;51.716;7.016;2023-03-14T00:23:54;6.65;;;2.17;;
71836;SDS011;59686;51.716;7.016;2023-03-14T00:26:20;4.85;;;1.83;;
71836;SDS011;59686;51.716;7.016;2023-03-14T00:28:46;2.30;;;1.80;;
71836;SDS011;59686;51.716;7.016;2023-03-14T00:31:16;4.03;;;1.98;;
71836;SDS011;59686;51.716;7.016;2023-03-14T00:33:42;5.30;;;2.10;;
71836;SDS011;59686;51.716;7.016;2023-03-14T00:36:09;4.78;;;2.00;;
71836;SDS011;59686;51.716;7.016;2023-03-14T00:38:37;2.45;;;1.70;;
71836;SDS011;59686;51.716;7.016;2023-03-14T00:41:12;5.95;;;2.00;;
71836;SDS011;59686;51.716;7.016;2023-03-14T00:43:39;5.18;;;2.08;;
71836;SDS011;59686;51.716;7.016;2023-03-14T00:46:05;4.03;;;1.77;;
71836;SDS011;59686;51.716;7.016;2023-03-14T00:48:31;4.28;;;1.80;;
71836;SDS011;59686;51.716;7.016;2023-03-14T00:50:57;3.97;;;1.67;;
71836;SDS011;59686;51.716;7.016;2023-03-14T00:53:23;4.05;;;1.80;;
71836;SDS011;59686;51.716;7.016;2023-03-14T00:55:48;5.07;;;2.15;;
71836;SDS011;59686;51.716;7.016;2023-03-14T00:58:15;6.40;;;2.10;;
71836;SDS011;59686;51.716;7.016;2023-03-14T01:00:42;3.55;;;1.90;;
71836;SDS011;59686;51.716;7.016;2023-03-14T01:03:09;2.95;;;1.90;;
71836;SDS011;59686;51.716;7.016;2023-03-14T01:05:36;4.70;;;1.83;;
71836;SDS011;59686;51.716;7.016;2023-03-14T01:08:02;5.85;;;2.08;;
71836;SDS011;59686;51.716;7.016;2023-03-14T01:10:29;4.65;;;2.10;;
71836;SDS011;59686;51.716;7.016;2023-03-14T01:12:55;3.33;;;1.85;;
71836;SDS011;59686;51.716;7.016;2023-03-14T01:15:21;3.33;;;2.00;;
71836;SDS011;59686;51.716;7.016;2023-03-14T01:17:47;4.67;;;2.27;;
71836;SDS011;59686;51.716;7.016;2023-03-14T01:20:13;3.83;;;1.63;;
71836;SDS011;59686;51.716;7.016;2023-03-14T01:22:40;4.18;;;2.15;;
71836;SDS011;59686;51.716;7.016;2023-03-14T01:25:07;4.00;;;1.80;;
71836;SDS011;59686;51.716;7.016;2023-03-14T01:27:35;4.65;;;2.03;;
71836;SDS011;59686;51.716;7.016;2023-03-14T01:30:00;4.65;;;1.85;;
71836;SDS011;59686;51.716;7.016;2023-03-14T01:32:31;3.67;;;1.65;;
71836;SDS011;59686;51.716;7.016;2023-03-14T01:34:57;4.47;;;2.03;;
71836;SDS011;59686;51.716;7.016;2023-03-14T01:37:22;5.78;;;2.05;;
71836;SDS011;59686;51.716;7.016;2023-03-14T01:39:48;5.85;;;1.88;;
71836;SDS011;59686;51.716;7.016;2023-03-14T01:42:14;5.07;;;1.90;;
71836;SDS011;59686;51.716;7.016;2023-03-14T01:44:51;5.18;;;1.85;;
71836;SDS011;59686;51.716;7.016;2023-03-14T01:47:21;5.20;;;1.80;;
71836;SDS011;59686;51.716;7.016;2023-03-14T01:50:04;5.35;;;1.65;;
71836;SDS011;59686;51.716;7.016;2023-03-14T01:52:36;4.97;;;1.73;;
71836;SDS011;59686;51.716;7.016;2023-03-14T01:55:17;5.60;;;1.88;;
71836;SDS011;59686;51.716;7.016;2023-03-14T01:57:54;5.83;;;2.23;;
71836;SDS011;59686;51.716;7.016;2023-03-14T02:00:24;5.13;;;1.83;;
71836;SDS011;59686;51.716;7.016;2023-03-14T02:02:52;4.28;;;1.60;;
71836;SDS011;59686;51.716;7.016;2023-03-14T02:05:26;3.42;;;1.60;;
71836;SDS011;59686;51.716;7.016;2023-03-14T02:08:02;4.00;;;1.92;;
71836;SDS011;59686;51.716;7.016;2023-03-14T02:10:32;5.37;;;1.87;;
71836;SDS011;59686;51.716;7.016;2023-03-14T02:13:01;4.60;;;1.73;;
71836;SDS011;59686;51.716;7.016;2023-03-14T02:15:28;5.00;;;2.08;;
71836;SDS011;59686;51.716;7.016;2023-03-14T02:17:54;6.55;;;2.03;;
71836;SDS011;59686;51.716;7.016;2023-03-14T02:20:44;4.90;;;2.00;;
71836;SDS011;59686;51.716;7.016;2023-03-14T02:26:27;3.43;;;1.70;;
71836;SDS011;59686;51.716;7.016;2023-03-14T02:28:59;4.80;;;1.70;;
71836;SDS011;59686;51.716;7.016;2023-03-14T02:31:25;5.60;;;1.80;;
71836;SDS011;59686;51.716;7.016;2023-03-14T02:33:50;3.90;;;1.80;;
71836;SDS011;59686;51.716;7.016;2023-03-14T02:36:17;2.97;;;1.80;;
71836;SDS011;59686;51.716;7.016;2023-03-14T02:38:55;6.87;;;1.80;;
71836;SDS011;59686;51.716;7.016;2023-03-14T02:41:49;4.28;;;1.90;;
71836;SDS011;59686;51.716;7.016;2023-03-14T02:44:15;6.03;;;1.90;;
71836;SDS011;59686;51.716;7.016;2023-03-14T02:46:41;4.87;;;1.83;;
71836;SDS011;59686;51.716;7.016;2023-03-14T02:49:08;5.07;;;1.73;;
71836;SDS011;59686;51.716;7.016;2023-03-14T02:51:37;3.97;;;1.70;;
71836;SDS011;59686;51.716;7.016;2023-03-14T02:54:05;4.87;;;1.93;;
71836;SDS011;59686;51.716;7.016;2023-03-14T02:56:32;4.50;;;1.50;;
71836;SDS011;59686;51.716;7.016;2023-03-14T02:58:58;9.43;;;2.20;;
71836;SDS011;59686;51.716;7.016;2023-03-14T03:01:24;4.63;;;1.80;;
71836;SDS011;59686;51.716;7.016;2023-03-14T03:03:50;4.77;;;1.57;;
71836;SDS011;59686;51.716;7.016;2023-03-14T03:06:16;5.40;;;1.90;;
71836;SDS011;59686;51.716;7.016;2023-03-14T03:08:42;4.63;;;1.80;;
71836;SDS011;59686;51.716;7.016;2023-03-14T03:11:07;3.00;;;1.50;;
71836;SDS011;59686;51.716;7.016;2023-03-14T03:13:33;5.23;;;1.87;;
71836;SDS011;59686;51.716;7.016;2023-03-14T03:18:29;4.60;;;1.87;;
71836;SDS011;59686;51.716;7.016;2023-03-14T03:20:54;3.27;;;1.57;;
71836;SDS011;59686;51.716;7.016;2023-03-14T03:23:20;4.47;;;1.80;;
71836;SDS011;59686;51.716;7.016;2023-03-14T03:25:49;5.57;;;2.03;;
71836;SDS011;59686;51.716;7.016;2023-03-14T03:28:16;6.23;;;1.77;;
71836;SDS011;59686;51.716;7.016;2023-03-14T03:30:42;5.93;;;1.73;;
71836;SDS011;59686;51.716;7.016;2023-03-14T03:33:08;4.97;;;1.63;;
71836;SDS011;59686;51.716;7.016;2023-03-14T03:35:34;6.27;;;1.90;;
71836;SDS011;59686;51.716;7.016;2023-03-14T03:38:00;6.57;;;1.80;;
71836;SDS011;59686;51.716;7.016;2023-03-14T03:40:26;7.50;;;2.08;;
71836;SDS011;59686;51.716;7.016;2023-03-14T03:42:51;6.07;;;2.10;;
71836;SDS011;59686;51.716;7.016;2023-03-14T03:45:17;6.50;;;2.53;;
71836;SDS011;59686;51.716;7.016;2023-03-14T03:47:43;4.77;;;2.20;;
71836;SDS011;59686;51.716;7.016;2023-03-14T03:50:09;6.33;;;2.37;;
71836;SDS011;59686;51.716;7.016;2023-03-14T03:52:35;7.07;;;2.60;;
71836;SDS011;59686;51.716;7.016;2023-03-14T03:55:01;5.47;;;2.37;;
71836;SDS011;59686;51.716;7.016;2023-03-14T03:57:26;6.33;;;2.70;;
71836;SDS011;59686;51.716;7.016;2023-03-14T03:59:52;8.67;;;2.83;;
71836;SDS011;59686;51.716;7.016;2023-03-14T04:02:18;7.60;;;2.67;;
71836;SDS011;59686;51.716;7.016;2023-03-14T04:04:43;5.37;;;2.20;;
71836;SDS011;59686;51.716;7.016;2023-03-14T04:07:09;6.13;;;2.50;;
71836;SDS011;59686;51.716;7.016;2023-03-14T04:09:36;7.20;;;2.53;;
71836;SDS011;59686;51.716;7.016;2023-03-14T04:12:03;6.67;;;2.50;;
71836;SDS011;59686;51.716;7.016;2023-03-14T04:14:28;7.93;;;3.20;;
71836;SDS011;59686;51.716;7.016;2023-03-14T04:16:54;6.47;;;2.73;;
71836;SDS011;59686;51.716;7.016;2023-03-14T04:19:20;7.93;;;2.60;;
71836;SDS011;59686;51.716;7.016;2023-03-14T04:21:46;6.77;;;2.47;;
71836;SDS011;59686;51.716;7.016;2023-03-14T04:24:12;8.63;;;3.07;;
71836;SDS011;59686;51.716;7.016;2023-03-14T04:26:38;5.60;;;2.60;;
71836;SDS011;59686;51.716;7.016;2023-03-14T04:29:04;13.67;;;2.77;;
71836;SDS011;59686;51.716;7.016;2023-03-14T04:31:30;7.68;;;2.67;;
71836;SDS011;59686;51.716;7.016;2023-03-14T04:33:55;7.37;;;2.23;;
71836;SDS011;59686;51.716;7.016;2023-03-14T04:36:21;6.63;;;2.67;;
71836;SDS011;59686;51.716;7.016;2023-03-14T04:38:47;5.95;;;2.30;;
71836;SDS011;59686;51.716;7.016;2023-03-14T04:41:12;5.10;;;2.00;;
71836;SDS011;59686;51.716;7.016;2023-03-14T04:43:38;5.67;;;1.93;;
71836;SDS011;59686;51.716;7.016;2023-03-14T04:46:04;4.50;;;2.00;;
71836;SDS011;59686;51.716;7.016;2023-03-14T04:48:30;4.83;;;2.20;;
71836;SDS011;59686;51.716;7.016;2023-03-14T04:50:55;6.37;;;2.20;;
71836;SDS011;59686;51.716;7.016;2023-03-14T04:53:21;9.27;;;2.63;;
71836;SDS011;59686;51.716;7.016;2023-03-14T04:55:54;5.80;;;2.33;;
71836;SDS011;59686;51.716;7.016;2023-03-14T04:58:20;5.13;;;1.97;;
71836;SDS011;59686;51.716;7.016;2023-03-14T05:00:47;6.87;;;2.40;;
71836;SDS011;59686;51.716;7.016;2023-03-14T05:03:16;5.23;;;1.67;;
71836;SDS011;59686;51.716;7.016;2023-03-14T05:05:43;5.88;;;2.08;;
71836;SDS011;59686;51.716;7.016;2023-03-14T05:08:09;7.05;;;2.10;;
71836;SDS011;59686;51.716;7.016;2023-03-14T05:10:35;6.67;;;2.23;;
71836;SDS011;59686;51.716;7.016;2023-03-14T05:13:01;4.93;;;2.05;;
71836;SDS011;59686;51.716;7.016;2023-03-14T05:15:27;6.07;;;2.17;;
71836;SDS011;59686;51.716;7.016;2023-03-14T05:17:53;7.88;;;1.90;;
71836;SDS011;59686;51.716;7.016;2023-03-14T05:20:19;5.17;;;1.97;;
71836;SDS011;59686;51.716;7.016;2023-03-14T05:22:45;4.87;;;2.00;;
71836;SDS011;59686;51.716;7.016;2023-03-14T05:25:11;7.10;;;2.13;;
71836;SDS011;59686;51.716;7.016;2023-03-14T05:27:38;5.20;;;1.80;;
71836;SDS011;59686;51.716;7.016;2023-03-14T05:30:04;5.53;;;1.50;;
71836;SDS011;59686;51.716;7.016;2023-03-14T05:32:31;5.73;;;2.50;;
71836;SDS011;59686;51.716;7.016;2023-03-14T05:34:57;3.42;;;1.73;;
71836;SDS011;59686;51.716;7.016;2023-03-14T05:37:27;6.88;;;1.60;;
71836;SDS011;59686;51.716;7.016;2023-03-14T05:39:57;3.53;;;1.50;;
71836;SDS011;59686;51.716;7.016;2023-03-14T05:42:22;3.03;;;1.48;;
71836;SDS011;59686;51.716;7.016;2023-03-14T05:44:48;3.80;;;1.65;;
71836;SDS011;59686;51.716;7.016;2023-03-14T05:47:14;4.10;;;1.80;;
71836;SDS011;59686;51.716;7.016;2023-03-14T05:49:39;3.03;;;1.40;;
71836;SDS011;59686;51.716;7.016;2023-03-14T05:52:05;3.43;;;1.50;;
71836;SDS011;59686;51.716;7.016;2023-03-14T05:54:31;3.60;;;1.40;;
71836;SDS011;59686;51.716;7.016;2023-03-14T05:56:56;3.07;;;1.50;;
71836;SDS011;59686;51.716;7.016;2023-03-14T05:59:22;2.47;;;1.20;;
71836;SDS011;59686;51.716;7.016;2023-03-14T06:01:48;2.43;;;1.07;;
71836;SDS011;59686;51.716;7.016;2023-03-14T06:04:13;2.17;;;1.23;;
71836;SDS011;59686;51.716;7.016;2023-03-14T06:06:39;2.87;;;1.17;;
71836;SDS011;59686;51.716;7.016;2023-03-14T06:09:05;2.37;;;1.20;;
71836;SDS011;59686;51.716;7.016;2023-03-14T06:11:30;5.03;;;1.33;;
71836;SDS011;59686;51.716;7.016;2023-03-14T06:13:56;2.67;;;1.33;;
71836;SDS011;59686;51.716;7.016;2023-03-14T06:16:22;3.87;;;1.30;;
71836;SDS011;59686;51.716;7.016;2023-03-14T06:21:17;2.97;;;1.60;;
71836;SDS011;59686;51.716;7.016;2023-03-14T06:23:44;2.07;;;1.40;;
71836;SDS011;59686;51.716;7.016;2023-03-14T06:26:09;2.07;;;1.50;;
71836;SDS011;59686;51.716;7.016;2023-03-14T06:28:36;4.13;;;2.00;;
71836;SDS011;59686;51.716;7.016;2023-03-14T06:31:03;2.50;;;1.70;;
71836;SDS011;59686;51.716;7.016;2023-03-14T06:33:34;3.93;;;2.10;;
71836;SDS011;59686;51.716;7.016;2023-03-14T06:35:59;4.53;;;2.23;;
71836;SDS011;59686;51.716;7.016;2023-03-14T06:38:25;3.60;;;2.17;;
71836;SDS011;59686;51.716;7.016;2023-03-14T06:40:51;3.60;;;2.70;;
71836;SDS011;59686;51.716;7.016;2023-03-14T06:43:16;4.17;;;2.30;;
71836;SDS011;59686;51.716;7.016;2023-03-14T06:45:57;3.37;;;2.40;;
71836;SDS011;59686;51.716;7.016;2023-03-14T06:48:22;4.13;;;2.50;;
71836;SDS011;59686;51.716;7.016;2023-03-14T06:50:48;5.30;;;2.83;;
71836;SDS011;59686;51.716;7.016;2023-03-14T06:53:14;3.63;;;2.70;;
71836;SDS011;59686;51.716;7.016;2023-03-14T06:55:40;4.53;;;2.60;;
71836;SDS011;59686;51.716;7.016;2023-03-14T06:58:05;4.23;;;2.63;;
71836;SDS011;59686;51.716;7.016;2023-03-14T07:00:33;3.57;;;2.20;;
71836;SDS011;59686;51.716;7.016;2023-03-14T07:02:59;3.03;;;2.30;;
71836;SDS011;59686;51.716;7.016;2023-03-14T07:05:24;3.40;;;2.37;;
71836;SDS011;59686;51.716;7.016;2023-03-14T07:07:50;4.40;;;2.77;;
71836;SDS011;59686;51.716;7.016;2023-03-14T07:10:16;4.43;;;2.57;;
71836;SDS011;59686;51.716;7.016;2023-03-14T07:12:42;3.27;;;2.60;;
71836;SDS011;59686;51.716;7.016;2023-03-14T07:15:08;3.90;;;2.60;;
71836;SDS011;59686;51.716;7.016;2023-03-14T07:17:34;3.87;;;2.77;;
71836;SDS011;59686;51.716;7.016;2023-03-14T07:19:59;3.87;;;2.53;;
71836;SDS011;59686;51.716;7.016;2023-03-14T07:22:25;4.13;;;2.50;;
71836;SDS011;59686;51.716;7.016;2023-03-14T07:24:53;3.50;;;2.30;;
71836;SDS011;59686;51.716;7.016;2023-03-14T07:27:19;3.40;;;2.90;;
71836;SDS011;59686;51.716;7.016;2023-03-14T07:29:44;3.43;;;2.77;;
71836;SDS011;59686;51.716;7.016;2023-03-14T07:32:10;4.87;;;2.60;;
71836;SDS011;59686;51.716;7.016;2023-03-14T07:34:39;3.90;;;2.40;;
71836;SDS011;59686;51.716;7.016;2023-03-14T07:37:06;4.03;;;2.47;;
71836;SDS011;59686;51.716;7.016;2023-03-14T07:39:31;3.73;;;2.60;;
71836;SDS011;59686;51.716;7.016;2023-03-14T07:41:57;3.87;;;2.13;;
71836;SDS011;59686;51.716;7.016;2023-03-14T07:44:23;2.80;;;2.30;;
71836;SDS011;59686;51.716;7.016;2023-03-14T07:46:48;3.37;;;2.40;;
71836;SDS011;59686;51.716;7.016;2023-03-14T07:49:14;3.57;;;2.37;;
71836;SDS011;59686;51.716;7.016;2023-03-14T07:51:39;2.40;;;2.00;;
71836;SDS011;59686;51.716;7.016;2023-03-14T07:54:05;2.23;;;2.03;;
71836;SDS011;59686;51.716;7.016;2023-03-14T07:56:31;2.23;;;2.03;;
71836;SDS011;59686;51.716;7.016;2023-03-14T07:58:57;2.70;;;2.13;;
71836;SDS011;59686;51.716;7.016;2023-03-14T08:01:23;2.47;;;1.97;;
71836;SDS011;59686;51.716;7.016;2023-03-14T08:03:48;2.10;;;1.90;;
71836;SDS011;59686;51.716;7.016;2023-03-14T08:06:14;2.17;;;1.93;;
71836;SDS011;59686;51.716;7.016;2023-03-14T08:08:40;2.10;;;1.70;;
71836;SDS011;59686;51.716;7.016;2023-03-14T08:11:06;1.93;;;1.80;;
71836;SDS011;59686;51.716;7.016;2023-03-14T08:13:36;2.50;;;1.90;;
71836;SDS011;59686;51.716;7.016;2023-03-14T08:16:02;3.67;;;1.80;;
71836;SDS011;59686;51.716;7.016;2023-03-14T08:18:28;2.03;;;1.60;;
71836;SDS011;59686;51.716;7.016;2023-03-14T08:20:53;2.03;;;1.50;;
71836;SDS011;59686;51.716;7.016;2023-03-14T08:23:22;2.23;;;1.50;;
71836;SDS011;59686;51.716;7.016;2023-03-14T08:25:48;1.70;;;1.60;;
71836;SDS011;59686;51.716;7.016;2023-03-14T08:28:15;2.43;;;1.50;;
71836;SDS011;59686;51.716;7.016;2023-03-14T08:30:41;2.27;;;1.20;;
71836;SDS011;59686;51.716;7.016;2023-03-14T08:33:07;1.67;;;1.27;;
71836;SDS011;59686;51.716;7.016;2023-03-14T08:35:32;1.17;;;1.07;;
71836;SDS011;59686;51.716;7.016;2023-03-14T08:37:58;1.97;;;1.27;;
71836;SDS011;59686;51.716;7.016;2023-03-14T08:40:24;1.90;;;1.17;;
71836;SDS011;59686;51.716;7.016;2023-03-14T08:42:49;2.23;;;1.40;;
71836;SDS011;59686;51.716;7.016;2023-03-14T08:45:16;1.53;;;1.20;;
71836;SDS011;59686;51.716;7.016;2023-03-14T08:47:42;1.40;;;1.30;;
71836;SDS011;59686;51.716;7.016;2023-03-14T08:50:09;1.57;;;1.20;;
71836;SDS011;59686;51.716;7.016;2023-03-14T08:52:35;1.27;;;1.17;;
71836;SDS011;59686;51.716;7.016;2023-03-14T08:55:03;1.47;;;1.20;;
71836;SDS011;59686;51.716;7.016;2023-03-14T08:57:29;1.30;;;1.00;;
71836;SDS011;59686;51.716;7.016;2023-03-14T08:59:55;1.33;;;1.23;;
71836;SDS011;59686;51.716;7.016;2023-03-14T09:02:22;1.53;;;1.20;;
71836;SDS011;59686;51.716;7.016;2023-03-14T09:04:49;1.60;;;1.50;;
71836;SDS011;59686;51.716;7.016;2023-03-14T09:07:16;1.97;;;1.30;;
71836;SDS011;59686;51.716;7.016;2023-03-14T09:09:41;1.90;;;1.27;;
71836;SDS011;59686;51.716;7.016;2023-03-14T09:12:07;1.87;;;1.43;;
71836;SDS011;59686;51.716;7.016;2023-03-14T09:14:33;1.77;;;1.30;;
71836;SDS011;59686;51.716;7.016;2023-03-14T09:16:58;2.50;;;1.30;;
71836;SDS011;59686;51.716;7.016;2023-03-14T09:19:24;2.27;;;1.03;;
71836;SDS011;59686;51.716;7.016;2023-03-14T09:21:50;1.30;;;1.00;;
71836;SDS011;59686;51.716;7.016;2023-03-14T09:24:16;1.20;;;1.10;;
71836;SDS011;59686;51.716;7.016;2023-03-14T09:26:42;0.93;;;0.80;;
71836;SDS011;59686;51.716;7.016;2023-03-14T09:29:08;0.80;;;0.80;;
71836;SDS011;59686;51.716;7.016;2023-03-14T09:31:34;1.17;;;1.07;;
71836;SDS011;59686;51.716;7.016;2023-03-14T09:34:00;0.90;;;0.90;;
71836;SDS011;59686;51.716;7.016;2023-03-14T09:36:26;1.70;;;1.00;;
71836;SDS011;59686;51.716;7.016;2023-03-14T09:38:52;1.73;;;0.90;;
71836;SDS011;59686;51.716;7.016;2023-03-14T09:41:21;1.73;;;1.00;;
71836;SDS011;59686;51.716;7.016;2023-03-14T09:43:54;1.00;;;0.87;;
71836;SDS011;59686;51.716;7.016;2023-03-14T09:46:27;1.23;;;0.90;;
71836;SDS011;59686;51.716;7.016;2023-03-14T09:48:57;1.30;;;0.90;;
71836;SDS011;59686;51.716;7.016;2023-03-14T09:51:23;0.60;;;0.60;;
71836;SDS011;59686;51.716;7.016;2023-03-14T09:53:50;1.13;;;0.60;;
71836;SDS011;59686;51.716;7.016;2023-03-14T09:56:18;0.93;;;0.70;;
71836;SDS011;59686;51.716;7.016;2023-03-14T09:58:54;0.60;;;0.60;;
71836;SDS011;59686;51.716;7.016;2023-03-14T10:01:25;0.90;;;0.60;;
71836;SDS011;59686;51.716;7.016;2023-03-14T10:03:54;1.53;;;0.57;;
71836;SDS011;59686;51.716;7.016;2023-03-14T10:06:21;0.50;;;0.50;;
71836;SDS011;59686;51.716;7.016;2023-03-14T10:08:49;1.60;;;0.70;;
71836;SDS011;59686;51.716;7.016;2023-03-14T10:11:15;0.70;;;0.70;;
71836;SDS011;59686;51.716;7.016;2023-03-14T10:16:30;0.90;;;0.63;;
71836;SDS011;59686;51.716;7.016;2023-03-14T10:19:02;1.83;;;1.13;;
71836;SDS011;59686;51.716;7.016;2023-03-14T10:21:38;1.20;;;0.60;;
71836;SDS011;59686;51.716;7.016;2023-03-14T10:24:30;0.70;;;0.60;;
71836;SDS011;59686;51.716;7.016;2023-03-14T10:27:05;2.43;;;0.73;;
71836;SDS011;59686;51.716;7.016;2023-03-14T10:29:50;1.47;;;0.73;;
71836;SDS011;59686;51.716;7.016;2023-03-14T10:32:39;1.17;;;0.73;;
71836;SDS011;59686;51.716;7.016;2023-03-14T10:37:59;0.90;;;0.67;;
71836;SDS011;59686;51.716;7.016;2023-03-14T10:40:37;1.13;;;0.77;;
71836;SDS011;59686;51.716;7.016;2023-03-14T10:43:05;1.20;;;1.00;;
71836;SDS011;59686;51.716;7.016;2023-03-14T10:45:38;1.17;;;0.67;;
71836;SDS011;59686;51.716;7.016;2023-03-14T10:50:47;1.27;;;0.60;;
71836;SDS011;59686;51.716;7.016;2023-03-14T10:53:23;1.50;;;0.70;;
71836;SDS011;59686;51.716;7.016;2023-03-14T10:55:50;0.90;;;0.80;;
71836;SDS011;59686;51.716;7.016;2023-03-14T10:58:20;1.00;;;0.50;;
71836;SDS011;59686;51.716;7.016;2023-03-14T11:00:54;1.03;;;0.67;;
71836;SDS011;59686;51.716;7.016;2023-03-14T11:03:32;1.33;;;0.57;;
71836;SDS011;59686;51.716;7.016;2023-03-14T11:06:10;1.23;;;0.70;;
71836;SDS011;59686;51.716;7.016;2023-03-14T11:09:23;1.00;;;0.53;;
71836;SDS011;59686;51.716;7.016;2023-03-14T11:11:48;0.97;;;0.40;;
71836;SDS011;59686;51.716;7.016;2023-03-14T11:14:23;1.00;;;0.40;;
71836;SDS011;59686;51.716;7.016;2023-03-14T11:17:20;0.80;;;0.60;;
71836;SDS011;59686;51.716;7.016;2023-03-14T11:19:51;0.40;;;0.40;;
71836;SDS011;59686;51.716;7.016;2023-03-14T11:22:35;1.40;;;0.80;;
71836;SDS011;59686;51.716;7.016;2023-03-14T11:27:47;1.97;;;0.63;;
71836;SDS011;59686;51.716;7.016;2023-03-14T11:30:22;1.43;;;0.57;;
71836;SDS011;59686;51.716;7.016;2023-03-14T11:33:16;1.63;;;0.57;;
71836;SDS011;59686;51.716;7.016;2023-03-14T11:36:08;1.07;;;0.60;;
71836;SDS011;59686;51.716;7.016;2023-03-14T11:43:58;1.57;;;0.80;;
71836;SDS011;59686;51.716;7.016;2023-03-14T11:46:30;1.53;;;0.90;;
71836;SDS011;59686;51.716;7.016;2023-03-14T11:51:52;1.37;;;0.60;;
71836;SDS011;59686;51.716;7.016;2023-03-14T11:54:42;0.70;;;0.70;;
71836;SDS011;59686;51.716;7.016;2023-03-14T11:57:21;2.47;;;1.07;;
71836;SDS011;59686;51.716;7.016;2023-03-14T12:08:14;3.40;;;1.00;;
71836;SDS011;59686;51.716;7.016;2023-03-14T12:11:01;2.47;;;0.90;;
71836;SDS011;59686;51.716;7.016;2023-03-14T12:13:33;1.90;;;1.07;;
71836;SDS011;59686;51.716;7.016;2023-03-14T12:18:51;3.77;;;1.10;;
71836;SDS011;59686;51.716;7.016;2023-03-14T12:21:17;2.50;;;1.13;;
71836;SDS011;59686;51.716;7.016;2023-03-14T12:23:53;3.30;;;1.20;;
71836;SDS011;59686;51.716;7.016;2023-03-14T12:26:21;4.30;;;1.27;;
71836;SDS011;59686;51.716;7.016;2023-03-14T12:28:49;3.50;;;1.13;;
71836;SDS011;59686;51.716;7.016;2023-03-14T12:45:08;3.37;;;1.40;;
71836;SDS011;59686;51.716;7.016;2023-03-14T12:48:01;5.10;;;1.57;;
71836;SDS011;59686;51.716;7.016;2023-03-14T12:55:55;8.70;;;1.60;;
71836;SDS011;59686;51.716;7.016;2023-03-14T13:01:15;7.73;;;1.70;;
71836;SDS011;59686;51.716;7.016;2023-03-14T13:03:50;6.13;;;1.97;;
71836;SDS011;59686;51.716;7.016;2023-03-14T13:12:02;5.50;;;2.07;;
71836;SDS011;59686;51.716;7.016;2023-03-14T13:14:28;6.70;;;2.03;;
71836;SDS011;59686;51.716;7.016;2023-03-14T13:16:55;8.57;;;2.07;;
71836;SDS011;59686;51.716;7.016;2023-03-14T13:19:28;9.17;;;1.90;;
71836;SDS011;59686;51.716;7.016;2023-03-14T13:21:59;8.80;;;2.30;;
71836;SDS011;59686;51.716;7.016;2023-03-14T13:24:32;6.90;;;2.10;;
71836;SDS011;59686;51.716;7.016;2023-03-14T13:26:59;7.53;;;2.00;;
71836;SDS011;59686;51.716;7.016;2023-03-14T13:31:56;8.50;;;2.10;;
71836;SDS011;59686;51.716;7.016;2023-03-14T13:34:34;9.83;;;2.17;;
71836;SDS011;59686;51.716;7.016;2023-03-14T13:37:00;9.37;;;2.40;;
71836;SDS011;59686;51.716;7.016;2023-03-14T13:39:26;6.00;;;1.70;;
71836;SDS011;59686;51.716;7.016;2023-03-14T13:41:55;8.53;;;2.67;;
71836;SDS011;59686;51.716;7.016;2023-03-14T13:44:25;8.07;;;1.87;;
71836;SDS011;59686;51.716;7.016;2023-03-14T13:47:03;8.93;;;2.10;;
71836;SDS011;59686;51.716;7.016;2023-03-14T13:49:31;11.10;;;2.50;;
71836;SDS011;59686;51.716;7.016;2023-03-14T13:52:00;6.63;;;1.73;;
71836;SDS011;59686;51.716;7.016;2023-03-14T13:54:27;9.40;;;2.03;;
71836;SDS011;59686;51.716;7.016;2023-03-14T13:57:00;9.80;;;2.30;;
71836;SDS011;59686;51.716;7.016;2023-03-14T13:59:36;7.93;;;2.30;;
71836;SDS011;59686;51.716;7.016;2023-03-14T14:02:09;5.97;;;2.33;;
71836;SDS011;59686;51.716;7.016;2023-03-14T14:04:38;10.10;;;2.57;;
71836;SDS011;59686;51.716;7.016;2023-03-14T14:07:08;7.47;;;1.93;;
71836;SDS011;59686;51.716;7.016;2023-03-14T14:09:42;8.37;;;2.43;;
71836;SDS011;59686;51.716;7.016;2023-03-14T14:12:17;8.40;;;2.43;;
71836;SDS011;59686;51.716;7.016;2023-03-14T14:15:01;8.97;;;1.93;;
71836;SDS011;59686;51.716;7.016;2023-03-14T14:17:29;7.77;;;2.13;;
71836;SDS011;59686;51.716;7.016;2023-03-14T14:19:59;7.07;;;2.10;;
71836;SDS011;59686;51.716;7.016;2023-03-14T14:22:28;8.93;;;2.40;;
71836;SDS011;59686;51.716;7.016;2023-03-14T14:24:55;8.43;;;1.83;;
71836;SDS011;59686;51.716;7.016;2023-03-14T14:27:28;7.00;;;1.90;;
71836;SDS011;59686;51.716;7.016;2023-03-14T14:30:21;10.00;;;2.47;;
71836;SDS011;59686;51.716;7.016;2023-03-14T14:33:18;5.60;;;1.80;;
71836;SDS011;59686;51.716;7.016;2023-03-14T14:35:52;6.60;;;1.80;;
71836;SDS011;59686;51.716;7.016;2023-03-14T14:38:25;6.87;;;2.50;;
71836;SDS011;59686;51.716;7.016;2023-03-14T14:40:53;6.70;;;1.90;;
71836;SDS011;59686;51.716;7.016;2023-03-14T14:43:24;7.30;;;2.20;;
71836;SDS011;59686;51.716;7.016;2023-03-14T14:45:53;7.57;;;1.93;;
71836;SDS011;59686;51.716;7.016;2023-03-14T14:48:25;10.80;;;1.93;;
71836;SDS011;59686;51.716;7.016;2023-03-14T14:50:59;7.97;;;1.67;;
71836;SDS011;59686;51.716;7.016;2023-03-14T14:53:42;9.07;;;1.90;;
71836;SDS011;59686;51.716;7.016;2023-03-14T14:56:18;7.77;;;1.60;;
71836;SDS011;59686;51.716;7.016;2023-03-14T14:58:47;8.17;;;1.50;;
71836;SDS011;59686;51.716;7.016;2023-03-14T15:01:14;8.67;;;1.73;;
71836;SDS011;59686;51.716;7.016;2023-03-14T15:03:44;5.33;;;2.17;;
71836;SDS011;59686;51.716;7.016;2023-03-14T15:06:12;10.30;;;2.40;;
71836;SDS011;59686;51.716;7.016;2023-03-14T15:08:39;6.00;;;1.70;;
71836;SDS011;59686;51.716;7.016;2023-03-14T15:11:05;4.90;;;1.57;;
71836;SDS011;59686;51.716;7.016;2023-03-14T15:13:30;5.37;;;1.77;;
71836;SDS011;59686;51.716;7.016;2023-03-14T15:15:56;5.77;;;1.77;;
71836;SDS011;59686;51.716;7.016;2023-03-14T15:18:27;5.37;;;1.67;;
71836;SDS011;59686;51.716;7.016;2023-03-14T15:20:54;7.57;;;1.80;;
71836;SDS011;59686;51.716;7.016;2023-03-14T15:23:21;9.00;;;2.03;;
71836;SDS011;59686;51.716;7.016;2023-03-14T15:25:47;6.47;;;1.80;;
71836;SDS011;59686;51.716;7.016;2023-03-14T15:28:15;6.17;;;1.87;;
71836;SDS011;59686;51.716;7.016;2023-03-14T15:30:46;4.57;;;1.83;;
71836;SDS011;59686;51.716;7.016;2023-03-14T15:33:13;5.93;;;1.60;;
71836;SDS011;59686;51.716;7.016;2023-03-14T15:35:39;4.00;;;1.50;;
71836;SDS011;59686;51.716;7.016;2023-03-14T15:38:09;7.13;;;1.40;;
71836;SDS011;59686;51.716;7.016;2023-03-14T15:40:39;5.77;;;2.07;;
71836;SDS011;59686;51.716;7.016;2023-03-14T15:43:06;3.77;;;1.23;;
71836;SDS011;59686;51.716;7.016;2023-03-14T15:45:31;4.50;;;1.53;;
71836;SDS011;59686;51.716;7.016;2023-03-14T15:47:57;3.27;;;1.00;;
71836;SDS011;59686;51.716;7.016;2023-03-14T15:50:24;8.10;;;1.40;;
71836;SDS011;59686;51.716;7.016;2023-03-14T15:52:50;2.83;;;1.20;;
71836;SDS011;59686;51.716;7.016;2023-03-14T15:55:16;5.00;;;1.57;;
71836;SDS011;59686;51.716;7.016;2023-03-14T15:57:42;6.00;;;1.40;;
71836;SDS011;59686;51.716;7.016;2023-03-14T16:00:13;4.93;;;1.53;;
71836;SDS011;59686;51.716;7.016;2023-03-14T16:02:43;7.70;;;1.50;;
71836;SDS011;59686;51.716;7.016;2023-03-14T16:05:10;3.63;;;1.50;;
71836;SDS011;59686;51.716;7.016;2023-03-14T16:07:36;5.10;;;1.60;;
71836;SDS011;59686;51.716;7.016;2023-03-14T16:10:03;5.27;;;1.73;;